sensor_id;sensor_type;location;lat;lon;timestamp;P1;durP1;ratioP1;P2;durP2;ratioP2
79728;SDS011;69218;52.132;5.418;2024-03-23T00:56:03;14.32;;;5.95;;
79728;SDS011;69218;52.132;5.418;2024-03-23T00:58:30;16.45;;;5.18;;
79728;SDS011;69218;52.132;5.418;2024-03-23T01:00:55;12.73;;;5.07;;
79728;SDS011;69218;52.132;5.418;2024-03-23T01:03:21;17.27;;;5.20;;
79728;SDS011;69218;52.132;5.418;2024-03-23T01:05:46;14.13;;;4.90;;
79728;SDS011;69218;52.132;5.418;2024-03-23T01:08:14;12.55;;;4.70;;
79728;SDS011;69218;52.132;5.418;2024-03-23T01:10:40;10.80;;;4.75;;
79728;SDS011;69218;52.132;5.418;2024-03-23T01:13:05;12.10;;;4.75;;
79728;SDS011;69218;52.132;5.418;2024-03-23T01:15:31;12.93;;;4.30;;
79728;SDS011;69218;52.132;5.418;2024-03-23T01:17:57;12.15;;;4.72;;
79728;SDS011;69218;52.132;5.418;2024-03-23T01:20:22;15.45;;;4.68;;
79728;SDS011;69218;52.132;5.418;2024-03-23T01:22:48;12.40;;;4.60;;
79728;SDS011;69218;52.132;5.418;2024-03-23T01:25:13;13.45;;;5.28;;
79728;SDS011;69218;52.132;5.418;2024-03-23T01:27:40;16.33;;;4.43;;
79728;SDS011;69218;52.132;5.418;2024-03-23T01:30:07;11.98;;;4.20;;
79728;SDS011;69218;52.132;5.418;2024-03-23T01:32:33;12.95;;;5.53;;
79728;SDS011;69218;52.132;5.418;2024-03-23T01:34:58;12.77;;;4.20;;
79728;SDS011;69218;52.132;5.418;2024-03-23T01:37:24;13.23;;;4.55;;
79728;SDS011;69218;52.132;5.418;2024-03-23T01:39:49;12.15;;;4.60;;
79728;SDS011;69218;52.132;5.418;2024-03-23T01:42:15;8.20;;;4.03;;
79728;SDS011;69218;52.132;5.418;2024-03-23T01:44:40;15.07;;;5.43;;
79728;SDS011;69218;52.132;5.418;2024-03-23T01:47:06;10.70;;;4.72;;
79728;SDS011;69218;52.132;5.418;2024-03-23T01:49:32;14.32;;;4.57;;
79728;SDS011;69218;52.132;5.418;2024-03-23T01:51:58;10.10;;;4.65;;
79728;SDS011;69218;52.132;5.418;2024-03-23T01:54:25;16.92;;;5.40;;
79728;SDS011;69218;52.132;5.418;2024-03-23T01:56:50;14.35;;;5.07;;
79728;SDS011;69218;52.132;5.418;2024-03-23T01:59:16;9.02;;;3.65;;
79728;SDS011;69218;52.132;5.418;2024-03-23T02:01:41;14.57;;;5.07;;
79728;SDS011;69218;52.132;5.418;2024-03-23T02:04:07;9.50;;;4.30;;
79728;SDS011;69218;52.132;5.418;2024-03-23T02:06:34;16.17;;;5.05;;
79728;SDS011;69218;52.132;5.418;2024-03-23T02:09:00;13.85;;;5.25;;
79728;SDS011;69218;52.132;5.418;2024-03-23T02:11:26;11.00;;;4.65;;
79728;SDS011;69218;52.132;5.418;2024-03-23T02:13:51;11.68;;;4.65;;
79728;SDS011;69218;52.132;5.418;2024-03-23T02:16:17;16.15;;;5.40;;
79728;SDS011;69218;52.132;5.418;2024-03-23T02:18:43;11.02;;;4.35;;
79728;SDS011;69218;52.132;5.418;2024-03-23T02:21:08;12.65;;;4.68;;
79728;SDS011;69218;52.132;5.418;2024-03-23T02:23:34;11.23;;;4.90;;
79728;SDS011;69218;52.132;5.418;2024-03-23T02:25:59;15.60;;;4.85;;
79728;SDS011;69218;52.132;5.418;2024-03-23T02:28:25;11.93;;;4.40;;
79728;SDS011;69218;52.132;5.418;2024-03-23T02:30:51;13.38;;;4.22;;
79728;SDS011;69218;52.132;5.418;2024-03-23T02:33:17;16.65;;;4.85;;
79728;SDS011;69218;52.132;5.418;2024-03-23T02:35:43;12.75;;;4.53;;
79728;SDS011;69218;52.132;5.418;2024-03-23T02:38:09;14.43;;;4.88;;
79728;SDS011;69218;52.132;5.418;2024-03-23T02:40:34;13.20;;;5.57;;
79728;SDS011;69218;52.132;5.418;2024-03-23T02:43:02;12.95;;;5.38;;
79728;SDS011;69218;52.132;5.418;2024-03-23T02:45:28;14.20;;;4.85;;
79728;SDS011;69218;52.132;5.418;2024-03-23T02:47:53;13.65;;;4.05;;
79728;SDS011;69218;52.132;5.418;2024-03-23T02:50:19;13.25;;;4.57;;
79728;SDS011;69218;52.132;5.418;2024-03-23T02:52:45;11.77;;;4.60;;
79728;SDS011;69218;52.132;5.418;2024-03-23T02:55:11;14.48;;;4.25;;
79728;SDS011;69218;52.132;5.418;2024-03-23T02:57:37;11.30;;;4.25;;
79728;SDS011;69218;52.132;5.418;2024-03-23T03:00:03;11.75;;;4.57;;
79728;SDS011;69218;52.132;5.418;2024-03-23T03:02:29;9.63;;;4.35;;
79728;SDS011;69218;52.132;5.418;2024-03-23T03:04:54;11.55;;;3.83;;
79728;SDS011;69218;52.132;5.418;2024-03-23T03:07:20;11.07;;;3.80;;
79728;SDS011;69218;52.132;5.418;2024-03-23T03:09:45;7.78;;;3.10;;
79728;SDS011;69218;52.132;5.418;2024-03-23T03:12:11;11.07;;;3.85;;
79728;SDS011;69218;52.132;5.418;2024-03-23T03:14:37;8.38;;;3.90;;
79728;SDS011;69218;52.132;5.418;2024-03-23T03:17:02;10.52;;;3.67;;
79728;SDS011;69218;52.132;5.418;2024-03-23T03:19:29;11.80;;;4.00;;
79728;SDS011;69218;52.132;5.418;2024-03-23T03:21:55;9.73;;;4.00;;
79728;SDS011;69218;52.132;5.418;2024-03-23T03:24:20;12.85;;;4.25;;
79728;SDS011;69218;52.132;5.418;2024-03-23T03:26:46;10.70;;;3.65;;
79728;SDS011;69218;52.132;5.418;2024-03-23T03:29:12;10.55;;;4.05;;
79728;SDS011;69218;52.132;5.418;2024-03-23T03:31:38;9.93;;;3.67;;
79728;SDS011;69218;52.132;5.418;2024-03-23T03:34:05;11.30;;;3.42;;
79728;SDS011;69218;52.132;5.418;2024-03-23T03:36:31;10.18;;;3.78;;
79728;SDS011;69218;52.132;5.418;2024-03-23T03:38:56;10.93;;;4.13;;
79728;SDS011;69218;52.132;5.418;2024-03-23T03:41:22;8.77;;;3.80;;
79728;SDS011;69218;52.132;5.418;2024-03-23T03:43:47;9.73;;;3.30;;
79728;SDS011;69218;52.132;5.418;2024-03-23T03:46:13;9.70;;;3.42;;
79728;SDS011;69218;52.132;5.418;2024-03-23T03:48:38;10.55;;;3.33;;
79728;SDS011;69218;52.132;5.418;2024-03-23T03:51:04;11.25;;;3.42;;
79728;SDS011;69218;52.132;5.418;2024-03-23T03:53:30;8.50;;;3.20;;
79728;SDS011;69218;52.132;5.418;2024-03-23T03:55:56;9.10;;;3.35;;
79728;SDS011;69218;52.132;5.418;2024-03-23T03:58:22;10.57;;;3.58;;
79728;SDS011;69218;52.132;5.418;2024-03-23T04:00:47;8.02;;;3.10;;
79728;SDS011;69218;52.132;5.418;2024-03-23T04:03:13;8.63;;;3.20;;
79728;SDS011;69218;52.132;5.418;2024-03-23T04:05:38;8.05;;;2.72;;
79728;SDS011;69218;52.132;5.418;2024-03-23T04:08:05;7.35;;;3.17;;
79728;SDS011;69218;52.132;5.418;2024-03-23T04:10:32;6.85;;;2.80;;
79728;SDS011;69218;52.132;5.418;2024-03-23T04:12:58;7.15;;;3.15;;
79728;SDS011;69218;52.132;5.418;2024-03-23T04:15:23;8.65;;;2.72;;
79728;SDS011;69218;52.132;5.418;2024-03-23T04:17:49;10.10;;;2.92;;
79728;SDS011;69218;52.132;5.418;2024-03-23T04:20:14;8.05;;;2.80;;
79728;SDS011;69218;52.132;5.418;2024-03-23T04:22:45;9.07;;;3.20;;
79728;SDS011;69218;52.132;5.418;2024-03-23T04:25:10;8.07;;;3.00;;
79728;SDS011;69218;52.132;5.418;2024-03-23T04:27:39;7.82;;;2.92;;
79728;SDS011;69218;52.132;5.418;2024-03-23T04:30:06;9.70;;;3.90;;
79728;SDS011;69218;52.132;5.418;2024-03-23T04:32:39;5.72;;;2.90;;
79728;SDS011;69218;52.132;5.418;2024-03-23T04:35:05;10.15;;;2.80;;
79728;SDS011;69218;52.132;5.418;2024-03-23T04:37:34;8.38;;;3.08;;
79728;SDS011;69218;52.132;5.418;2024-03-23T04:40:03;9.13;;;3.40;;
79728;SDS011;69218;52.132;5.418;2024-03-23T04:42:29;8.55;;;2.75;;
79728;SDS011;69218;52.132;5.418;2024-03-23T04:44:55;10.45;;;3.10;;
79728;SDS011;69218;52.132;5.418;2024-03-23T04:47:20;6.20;;;3.17;;
79728;SDS011;69218;52.132;5.418;2024-03-23T04:49:46;9.25;;;2.78;;
79728;SDS011;69218;52.132;5.418;2024-03-23T04:52:12;8.32;;;3.00;;
79728;SDS011;69218;52.132;5.418;2024-03-23T04:54:37;7.53;;;2.72;;
79728;SDS011;69218;52.132;5.418;2024-03-23T04:57:05;9.63;;;2.65;;
79728;SDS011;69218;52.132;5.418;2024-03-23T04:59:31;10.13;;;2.53;;
79728;SDS011;69218;52.132;5.418;2024-03-23T05:01:57;8.32;;;2.72;;
79728;SDS011;69218;52.132;5.418;2024-03-23T05:04:23;7.03;;;2.47;;
79728;SDS011;69218;52.132;5.418;2024-03-23T05:06:48;7.50;;;2.47;;
79728;SDS011;69218;52.132;5.418;2024-03-23T05:09:14;7.70;;;2.38;;
79728;SDS011;69218;52.132;5.418;2024-03-23T05:11:40;4.45;;;1.90;;
79728;SDS011;69218;52.132;5.418;2024-03-23T05:14:07;6.85;;;2.38;;
79728;SDS011;69218;52.132;5.418;2024-03-23T05:16:33;8.73;;;2.88;;
79728;SDS011;69218;52.132;5.418;2024-03-23T05:18:59;9.25;;;2.50;;
79728;SDS011;69218;52.132;5.418;2024-03-23T05:21:24;6.63;;;2.33;;
79728;SDS011;69218;52.132;5.418;2024-03-23T05:23:50;6.57;;;1.92;;
79728;SDS011;69218;52.132;5.418;2024-03-23T05:26:16;6.03;;;1.83;;
79728;SDS011;69218;52.132;5.418;2024-03-23T05:28:42;7.43;;;1.98;;
79728;SDS011;69218;52.132;5.418;2024-03-23T05:31:08;6.55;;;2.00;;
79728;SDS011;69218;52.132;5.418;2024-03-23T05:33:37;8.73;;;1.88;;
79728;SDS011;69218;52.132;5.418;2024-03-23T05:36:03;6.38;;;1.88;;
79728;SDS011;69218;52.132;5.418;2024-03-23T05:38:29;5.22;;;2.03;;
79728;SDS011;69218;52.132;5.418;2024-03-23T05:40:56;3.47;;;1.55;;
79728;SDS011;69218;52.132;5.418;2024-03-23T05:43:22;5.97;;;1.92;;
79728;SDS011;69218;52.132;5.418;2024-03-23T05:45:58;4.93;;;1.60;;
79728;SDS011;69218;52.132;5.418;2024-03-23T05:48:25;3.55;;;1.23;;
79728;SDS011;69218;52.132;5.418;2024-03-23T05:50:52;4.65;;;1.98;;
79728;SDS011;69218;52.132;5.418;2024-03-23T05:53:18;5.00;;;2.10;;
79728;SDS011;69218;52.132;5.418;2024-03-23T05:55:45;6.47;;;1.58;;
79728;SDS011;69218;52.132;5.418;2024-03-23T05:58:14;3.88;;;1.40;;
79728;SDS011;69218;52.132;5.418;2024-03-23T06:00:40;8.30;;;1.67;;
79728;SDS011;69218;52.132;5.418;2024-03-23T06:03:07;6.25;;;2.08;;
79728;SDS011;69218;52.132;5.418;2024-03-23T06:05:33;7.32;;;1.42;;
79728;SDS011;69218;52.132;5.418;2024-03-23T06:07:59;6.95;;;2.13;;
79728;SDS011;69218;52.132;5.418;2024-03-23T06:10:25;8.48;;;1.52;;
79728;SDS011;69218;52.132;5.418;2024-03-23T06:12:50;6.32;;;1.40;;
79728;SDS011;69218;52.132;5.418;2024-03-23T06:15:18;5.78;;;1.23;;
79728;SDS011;69218;52.132;5.418;2024-03-23T06:17:44;5.55;;;1.52;;
79728;SDS011;69218;52.132;5.418;2024-03-23T06:20:09;6.82;;;1.08;;
79728;SDS011;69218;52.132;5.418;2024-03-23T06:22:36;4.57;;;1.30;;
79728;SDS011;69218;52.132;5.418;2024-03-23T06:25:01;4.97;;;0.98;;
79728;SDS011;69218;52.132;5.418;2024-03-23T06:27:27;3.70;;;0.88;;
79728;SDS011;69218;52.132;5.418;2024-03-23T06:29:53;3.88;;;0.63;;
79728;SDS011;69218;52.132;5.418;2024-03-23T06:32:19;4.95;;;0.90;;
79728;SDS011;69218;52.132;5.418;2024-03-23T06:34:44;4.45;;;1.05;;
79728;SDS011;69218;52.132;5.418;2024-03-23T06:37:11;3.65;;;0.77;;
79728;SDS011;69218;52.132;5.418;2024-03-23T06:39:37;4.30;;;3.53;;
79728;SDS011;69218;52.132;5.418;2024-03-23T06:42:02;6.38;;;1.40;;
79728;SDS011;69218;52.132;5.418;2024-03-23T06:44:28;5.88;;;0.95;;
79728;SDS011;69218;52.132;5.418;2024-03-23T06:46:55;6.05;;;1.05;;
79728;SDS011;69218;52.132;5.418;2024-03-23T06:49:26;3.30;;;0.85;;
79728;SDS011;69218;52.132;5.418;2024-03-23T06:51:52;4.30;;;0.88;;
79728;SDS011;69218;52.132;5.418;2024-03-23T06:54:19;5.57;;;1.23;;
79728;SDS011;69218;52.132;5.418;2024-03-23T06:56:48;5.10;;;0.90;;
79728;SDS011;69218;52.132;5.418;2024-03-23T06:59:14;7.95;;;1.58;;
79728;SDS011;69218;52.132;5.418;2024-03-23T07:01:39;6.78;;;1.10;;
79728;SDS011;69218;52.132;5.418;2024-03-23T07:04:05;6.63;;;1.05;;
79728;SDS011;69218;52.132;5.418;2024-03-23T07:06:31;8.70;;;1.30;;
79728;SDS011;69218;52.132;5.418;2024-03-23T07:08:56;11.02;;;1.17;;
79728;SDS011;69218;52.132;5.418;2024-03-23T07:11:22;6.75;;;0.93;;
79728;SDS011;69218;52.132;5.418;2024-03-23T07:13:52;9.10;;;1.45;;
79728;SDS011;69218;52.132;5.418;2024-03-23T07:16:20;7.15;;;1.67;;
79728;SDS011;69218;52.132;5.418;2024-03-23T07:18:45;6.32;;;1.20;;
79728;SDS011;69218;52.132;5.418;2024-03-23T07:21:12;7.85;;;1.17;;
79728;SDS011;69218;52.132;5.418;2024-03-23T07:23:38;4.40;;;1.08;;
79728;SDS011;69218;52.132;5.418;2024-03-23T07:26:14;4.53;;;1.52;;
79728;SDS011;69218;52.132;5.418;2024-03-23T07:28:40;5.60;;;1.30;;
79728;SDS011;69218;52.132;5.418;2024-03-23T07:31:10;6.45;;;1.48;;
79728;SDS011;69218;52.132;5.418;2024-03-23T07:33:37;4.53;;;1.35;;
79728;SDS011;69218;52.132;5.418;2024-03-23T07:36:07;8.88;;;1.92;;
79728;SDS011;69218;52.132;5.418;2024-03-23T07:38:33;7.97;;;1.60;;
79728;SDS011;69218;52.132;5.418;2024-03-23T07:41:02;4.65;;;1.45;;
79728;SDS011;69218;52.132;5.418;2024-03-23T07:43:38;6.07;;;1.73;;
79728;SDS011;69218;52.132;5.418;2024-03-23T07:46:07;6.95;;;1.50;;
79728;SDS011;69218;52.132;5.418;2024-03-23T07:48:33;6.45;;;1.42;;
79728;SDS011;69218;52.132;5.418;2024-03-23T07:51:19;6.28;;;1.50;;
79728;SDS011;69218;52.132;5.418;2024-03-23T07:53:51;3.78;;;1.10;;
79728;SDS011;69218;52.132;5.418;2024-03-23T07:56:17;4.47;;;1.35;;
79728;SDS011;69218;52.132;5.418;2024-03-23T07:58:46;5.20;;;1.08;;
79728;SDS011;69218;52.132;5.418;2024-03-23T08:01:14;6.45;;;1.42;;
79728;SDS011;69218;52.132;5.418;2024-03-23T08:03:42;5.55;;;1.02;;
79728;SDS011;69218;52.132;5.418;2024-03-23T08:08:39;7.72;;;1.17;;
79728;SDS011;69218;52.132;5.418;2024-03-23T08:11:09;9.80;;;1.10;;
79728;SDS011;69218;52.132;5.418;2024-03-23T08:13:35;4.18;;;0.95;;
79728;SDS011;69218;52.132;5.418;2024-03-23T08:16:02;4.88;;;1.63;;
79728;SDS011;69218;52.132;5.418;2024-03-23T08:18:30;7.05;;;1.45;;
79728;SDS011;69218;52.132;5.418;2024-03-23T08:21:03;6.03;;;0.93;;
79728;SDS011;69218;52.132;5.418;2024-03-23T08:23:30;5.30;;;1.00;;
79728;SDS011;69218;52.132;5.418;2024-03-23T08:28:28;5.65;;;1.15;;
79728;SDS011;69218;52.132;5.418;2024-03-23T08:30:54;5.10;;;0.82;;
79728;SDS011;69218;52.132;5.418;2024-03-23T08:33:21;3.33;;;0.65;;
79728;SDS011;69218;52.132;5.418;2024-03-23T08:35:56;5.18;;;1.10;;
79728;SDS011;69218;52.132;5.418;2024-03-23T08:38:29;5.57;;;0.85;;
79728;SDS011;69218;52.132;5.418;2024-03-23T08:46:03;5.70;;;0.98;;
79728;SDS011;69218;52.132;5.418;2024-03-23T08:48:34;5.57;;;1.30;;
79728;SDS011;69218;52.132;5.418;2024-03-23T08:51:01;5.22;;;0.90;;
79728;SDS011;69218;52.132;5.418;2024-03-23T08:53:30;5.85;;;0.80;;
79728;SDS011;69218;52.132;5.418;2024-03-23T08:55:57;7.35;;;1.30;;
79728;SDS011;69218;52.132;5.418;2024-03-23T08:58:23;5.32;;;0.75;;
79728;SDS011;69218;52.132;5.418;2024-03-23T09:00:54;7.40;;;1.50;;
79728;SDS011;69218;52.132;5.418;2024-03-23T09:03:23;4.00;;;0.50;;
79728;SDS011;69218;52.132;5.418;2024-03-23T09:05:49;4.15;;;0.55;;
79728;SDS011;69218;52.132;5.418;2024-03-23T09:08:15;5.22;;;0.80;;
79728;SDS011;69218;52.132;5.418;2024-03-23T09:10:41;5.68;;;0.90;;
79728;SDS011;69218;52.132;5.418;2024-03-23T09:13:08;2.95;;;0.60;;
79728;SDS011;69218;52.132;5.418;2024-03-23T09:15:34;3.63;;;0.90;;
79728;SDS011;69218;52.132;5.418;2024-03-23T09:18:02;4.25;;;0.65;;
79728;SDS011;69218;52.132;5.418;2024-03-23T09:20:32;3.03;;;0.50;;
79728;SDS011;69218;52.132;5.418;2024-03-23T09:22:58;4.75;;;0.50;;
79728;SDS011;69218;52.132;5.418;2024-03-23T09:25:24;3.65;;;0.43;;
79728;SDS011;69218;52.132;5.418;2024-03-23T09:27:50;8.32;;;0.80;;
79728;SDS011;69218;52.132;5.418;2024-03-23T09:30:16;3.22;;;0.50;;
79728;SDS011;69218;52.132;5.418;2024-03-23T09:32:43;4.45;;;0.70;;
79728;SDS011;69218;52.132;5.418;2024-03-23T09:35:09;5.82;;;0.68;;
79728;SDS011;69218;52.132;5.418;2024-03-23T09:37:35;4.20;;;0.65;;
79728;SDS011;69218;52.132;5.418;2024-03-23T09:40:01;3.05;;;0.82;;
79728;SDS011;69218;52.132;5.418;2024-03-23T09:42:27;5.25;;;0.70;;
79728;SDS011;69218;52.132;5.418;2024-03-23T09:44:53;6.03;;;0.75;;
79728;SDS011;69218;52.132;5.418;2024-03-23T09:47:19;3.30;;;0.50;;
79728;SDS011;69218;52.132;5.418;2024-03-23T09:49:44;2.75;;;0.50;;
79728;SDS011;69218;52.132;5.418;2024-03-23T09:52:10;2.30;;;0.52;;
79728;SDS011;69218;52.132;5.418;2024-03-23T09:54:36;3.03;;;0.50;;
79728;SDS011;69218;52.132;5.418;2024-03-23T09:57:01;2.60;;;0.38;;
79728;SDS011;69218;52.132;5.418;2024-03-23T09:59:29;3.40;;;0.50;;
79728;SDS011;69218;52.132;5.418;2024-03-23T10:01:54;2.38;;;0.60;;
79728;SDS011;69218;52.132;5.418;2024-03-23T10:04:36;3.17;;;0.60;;
79728;SDS011;69218;52.132;5.418;2024-03-23T10:07:23;4.10;;;0.73;;
79728;SDS011;69218;52.132;5.418;2024-03-23T10:09:48;5.82;;;1.00;;
79728;SDS011;69218;52.132;5.418;2024-03-23T10:12:17;4.93;;;0.93;;
79728;SDS011;69218;52.132;5.418;2024-03-23T10:14:44;5.65;;;1.23;;
79728;SDS011;69218;52.132;5.418;2024-03-23T10:17:20;4.75;;;0.95;;
79728;SDS011;69218;52.132;5.418;2024-03-23T10:19:50;3.08;;;0.52;;
79728;SDS011;69218;52.132;5.418;2024-03-23T10:22:17;7.97;;;0.75;;
79728;SDS011;69218;52.132;5.418;2024-03-23T10:24:47;4.15;;;0.77;;
79728;SDS011;69218;52.132;5.418;2024-03-23T10:27:20;5.90;;;0.82;;
79728;SDS011;69218;52.132;5.418;2024-03-23T10:29:47;4.60;;;0.63;;
79728;SDS011;69218;52.132;5.418;2024-03-23T10:32:14;4.88;;;0.40;;
79728;SDS011;69218;52.132;5.418;2024-03-23T10:34:42;4.45;;;0.63;;
79728;SDS011;69218;52.132;5.418;2024-03-23T10:37:08;3.50;;;0.52;;
79728;SDS011;69218;52.132;5.418;2024-03-23T10:39:37;5.80;;;0.55;;
79728;SDS011;69218;52.132;5.418;2024-03-23T10:42:05;3.40;;;0.80;;
79728;SDS011;69218;52.132;5.418;2024-03-23T10:44:33;5.82;;;0.85;;
79728;SDS011;69218;52.132;5.418;2024-03-23T10:46:59;4.60;;;0.70;;
79728;SDS011;69218;52.132;5.418;2024-03-23T10:49:26;1.90;;;0.70;;
79728;SDS011;69218;52.132;5.418;2024-03-23T10:51:59;7.18;;;1.02;;
79728;SDS011;69218;52.132;5.418;2024-03-23T10:54:26;6.97;;;1.13;;
79728;SDS011;69218;52.132;5.418;2024-03-23T10:56:53;4.80;;;1.00;;
79728;SDS011;69218;52.132;5.418;2024-03-23T10:59:41;1.55;;;0.35;;
79728;SDS011;69218;52.132;5.418;2024-03-23T11:02:08;2.97;;;0.60;;
79728;SDS011;69218;52.132;5.418;2024-03-23T11:04:44;2.45;;;0.50;;
79728;SDS011;69218;52.132;5.418;2024-03-23T11:09:53;4.13;;;1.05;;
79728;SDS011;69218;52.132;5.418;2024-03-23T11:15:10;4.95;;;0.80;;
79728;SDS011;69218;52.132;5.418;2024-03-23T11:17:37;5.07;;;0.70;;
79728;SDS011;69218;52.132;5.418;2024-03-23T11:20:03;5.47;;;1.17;;
79728;SDS011;69218;52.132;5.418;2024-03-23T11:25:22;5.65;;;0.75;;
79728;SDS011;69218;52.132;5.418;2024-03-23T11:27:50;4.47;;;0.98;;
79728;SDS011;69218;52.132;5.418;2024-03-23T11:32:47;6.10;;;0.50;;
79728;SDS011;69218;52.132;5.418;2024-03-23T11:35:26;3.70;;;0.82;;
79728;SDS011;69218;52.132;5.418;2024-03-23T11:40:31;5.60;;;0.77;;
79728;SDS011;69218;52.132;5.418;2024-03-23T11:42:58;3.13;;;0.73;;
79728;SDS011;69218;52.132;5.418;2024-03-23T11:45:25;4.93;;;1.00;;
79728;SDS011;69218;52.132;5.418;2024-03-23T11:48:07;3.35;;;0.55;;
79728;SDS011;69218;52.132;5.418;2024-03-23T11:50:33;5.85;;;0.70;;
79728;SDS011;69218;52.132;5.418;2024-03-23T11:53:09;6.55;;;0.70;;
79728;SDS011;69218;52.132;5.418;2024-03-23T11:55:54;4.13;;;0.70;;
79728;SDS011;69218;52.132;5.418;2024-03-23T11:58:21;5.93;;;0.60;;
79728;SDS011;69218;52.132;5.418;2024-03-23T12:00:52;6.65;;;1.27;;
79728;SDS011;69218;52.132;5.418;2024-03-23T12:03:18;4.07;;;0.63;;
79728;SDS011;69218;52.132;5.418;2024-03-23T12:05:50;4.63;;;0.70;;
79728;SDS011;69218;52.132;5.418;2024-03-23T12:08:19;5.65;;;0.70;;
79728;SDS011;69218;52.132;5.418;2024-03-23T12:10:53;4.20;;;0.50;;
79728;SDS011;69218;52.132;5.418;2024-03-23T12:13:29;5.50;;;0.88;;
79728;SDS011;69218;52.132;5.418;2024-03-23T12:15:56;5.38;;;0.77;;
79728;SDS011;69218;52.132;5.418;2024-03-23T12:18:35;5.70;;;0.63;;
79728;SDS011;69218;52.132;5.418;2024-03-23T12:21:00;4.47;;;0.70;;
79728;SDS011;69218;52.132;5.418;2024-03-23T12:23:26;6.10;;;0.70;;
79728;SDS011;69218;52.132;5.418;2024-03-23T12:25:51;5.47;;;0.90;;
79728;SDS011;69218;52.132;5.418;2024-03-23T12:28:17;4.68;;;0.70;;
79728;SDS011;69218;52.132;5.418;2024-03-23T12:30:42;6.78;;;0.82;;
79728;SDS011;69218;52.132;5.418;2024-03-23T12:33:08;4.30;;;0.60;;
79728;SDS011;69218;52.132;5.418;2024-03-23T12:35:33;3.85;;;0.50;;
79728;SDS011;69218;52.132;5.418;2024-03-23T12:37:59;4.28;;;0.70;;
79728;SDS011;69218;52.132;5.418;2024-03-23T12:40:25;3.63;;;0.43;;
79728;SDS011;69218;52.132;5.418;2024-03-23T12:42:52;6.32;;;0.50;;
79728;SDS011;69218;52.132;5.418;2024-03-23T12:45:17;3.22;;;1.10;;
79728;SDS011;69218;52.132;5.418;2024-03-23T12:47:43;4.97;;;1.00;;
79728;SDS011;69218;52.132;5.418;2024-03-23T12:50:09;7.18;;;0.70;;
79728;SDS011;69218;52.132;5.418;2024-03-23T12:52:35;3.70;;;0.40;;
79728;SDS011;69218;52.132;5.418;2024-03-23T12:55:01;6.30;;;0.73;;
79728;SDS011;69218;52.132;5.418;2024-03-23T12:57:29;3.58;;;0.40;;
79728;SDS011;69218;52.132;5.418;2024-03-23T12:59:54;2.22;;;0.60;;
79728;SDS011;69218;52.132;5.418;2024-03-23T13:02:20;5.13;;;0.50;;
79728;SDS011;69218;52.132;5.418;2024-03-23T13:04:49;4.13;;;0.60;;
79728;SDS011;69218;52.132;5.418;2024-03-23T13:07:16;4.28;;;0.63;;
79728;SDS011;69218;52.132;5.418;2024-03-23T13:09:42;3.35;;;0.63;;
79728;SDS011;69218;52.132;5.418;2024-03-23T13:12:08;6.50;;;0.93;;
79728;SDS011;69218;52.132;5.418;2024-03-23T13:14:34;2.80;;;0.45;;
79728;SDS011;69218;52.132;5.418;2024-03-23T13:17:00;4.63;;;0.55;;
79728;SDS011;69218;52.132;5.418;2024-03-23T13:19:27;4.95;;;0.60;;
79728;SDS011;69218;52.132;5.418;2024-03-23T13:21:56;4.22;;;0.45;;
79728;SDS011;69218;52.132;5.418;2024-03-23T13:24:22;1.85;;;0.40;;
79728;SDS011;69218;52.132;5.418;2024-03-23T13:26:49;4.30;;;0.50;;
79728;SDS011;69218;52.132;5.418;2024-03-23T13:31:44;1.25;;;0.17;;
79728;SDS011;69218;52.132;5.418;2024-03-23T13:34:11;1.10;;;0.15;;
79728;SDS011;69218;52.132;5.418;2024-03-23T13:36:36;0.63;;;0.10;;
79728;SDS011;69218;52.132;5.418;2024-03-23T13:39:03;1.55;;;0.10;;
79728;SDS011;69218;52.132;5.418;2024-03-23T13:41:39;1.80;;;0.10;;
79728;SDS011;69218;52.132;5.418;2024-03-23T13:44:06;0.85;;;0.10;;
79728;SDS011;69218;52.132;5.418;2024-03-23T13:46:32;1.23;;;0.17;;
79728;SDS011;69218;52.132;5.418;2024-03-23T13:48:58;2.42;;;0.25;;
79728;SDS011;69218;52.132;5.418;2024-03-23T13:51:24;3.10;;;0.20;;
79728;SDS011;69218;52.132;5.418;2024-03-23T13:53:53;3.70;;;0.20;;
79728;SDS011;69218;52.132;5.418;2024-03-23T13:56:20;4.55;;;0.30;;
79728;SDS011;69218;52.132;5.418;2024-03-23T13:58:46;4.07;;;0.25;;
79728;SDS011;69218;52.132;5.418;2024-03-23T14:01:15;2.40;;;0.30;;
79728;SDS011;69218;52.132;5.418;2024-03-23T14:03:41;5.00;;;0.68;;
79728;SDS011;69218;52.132;5.418;2024-03-23T14:06:08;3.95;;;0.38;;
79728;SDS011;69218;52.132;5.418;2024-03-23T14:08:34;5.72;;;0.60;;
79728;SDS011;69218;52.132;5.418;2024-03-23T14:11:10;3.78;;;0.52;;
79728;SDS011;69218;52.132;5.418;2024-03-23T14:13:36;5.07;;;0.80;;
79728;SDS011;69218;52.132;5.418;2024-03-23T14:16:02;4.72;;;0.88;;
79728;SDS011;69218;52.132;5.418;2024-03-23T14:18:28;5.53;;;0.60;;
79728;SDS011;69218;52.132;5.418;2024-03-23T14:21:00;4.53;;;0.70;;
79728;SDS011;69218;52.132;5.418;2024-03-23T14:23:27;3.60;;;0.30;;
79728;SDS011;69218;52.132;5.418;2024-03-23T14:25:59;4.38;;;0.85;;
79728;SDS011;69218;52.132;5.418;2024-03-23T14:28:25;6.82;;;0.88;;
79728;SDS011;69218;52.132;5.418;2024-03-23T14:30:51;5.38;;;0.70;;
79728;SDS011;69218;52.132;5.418;2024-03-23T14:33:20;2.47;;;0.50;;
79728;SDS011;69218;52.132;5.418;2024-03-23T14:35:52;3.28;;;0.40;;
79728;SDS011;69218;52.132;5.418;2024-03-23T14:38:18;6.85;;;0.80;;
79728;SDS011;69218;52.132;5.418;2024-03-23T14:40:45;6.50;;;0.47;;
79728;SDS011;69218;52.132;5.418;2024-03-23T14:43:11;5.70;;;0.65;;
79728;SDS011;69218;52.132;5.418;2024-03-23T14:45:36;4.20;;;0.52;;
79728;SDS011;69218;52.132;5.418;2024-03-23T14:48:02;2.03;;;0.40;;
79728;SDS011;69218;52.132;5.418;2024-03-23T14:50:28;1.90;;;0.40;;
79728;SDS011;69218;52.132;5.418;2024-03-23T14:52:53;4.25;;;0.60;;
79728;SDS011;69218;52.132;5.418;2024-03-23T14:55:19;5.40;;;0.80;;
79728;SDS011;69218;52.132;5.418;2024-03-23T14:57:45;4.65;;;0.50;;
79728;SDS011;69218;52.132;5.418;2024-03-23T15:00:11;3.80;;;0.70;;
79728;SDS011;69218;52.132;5.418;2024-03-23T15:02:37;4.65;;;0.60;;
79728;SDS011;69218;52.132;5.418;2024-03-23T15:05:03;3.22;;;0.32;;
79728;SDS011;69218;52.132;5.418;2024-03-23T15:07:32;3.70;;;0.45;;
79728;SDS011;69218;52.132;5.418;2024-03-23T15:09:58;3.72;;;0.40;;
79728;SDS011;69218;52.132;5.418;2024-03-23T15:12:24;4.35;;;0.40;;
79728;SDS011;69218;52.132;5.418;2024-03-23T15:14:49;3.80;;;0.63;;
79728;SDS011;69218;52.132;5.418;2024-03-23T15:17:15;4.20;;;0.65;;
79728;SDS011;69218;52.132;5.418;2024-03-23T15:19:41;5.03;;;0.60;;
79728;SDS011;69218;52.132;5.418;2024-03-23T15:22:08;2.92;;;0.65;;
79728;SDS011;69218;52.132;5.418;2024-03-23T15:24:34;2.78;;;0.65;;
79728;SDS011;69218;52.132;5.418;2024-03-23T15:27:01;2.25;;;0.40;;
79728;SDS011;69218;52.132;5.418;2024-03-23T15:29:27;1.27;;;0.28;;
79728;SDS011;69218;52.132;5.418;2024-03-23T15:31:52;2.45;;;0.30;;
79728;SDS011;69218;52.132;5.418;2024-03-23T15:34:21;5.63;;;0.30;;
79728;SDS011;69218;52.132;5.418;2024-03-23T15:36:49;2.80;;;0.40;;
79728;SDS011;69218;52.132;5.418;2024-03-23T15:39:16;3.97;;;0.45;;
79728;SDS011;69218;52.132;5.418;2024-03-23T15:41:45;5.47;;;0.50;;
79728;SDS011;69218;52.132;5.418;2024-03-23T15:44:11;4.65;;;0.60;;
79728;SDS011;69218;52.132;5.418;2024-03-23T15:46:37;4.05;;;0.40;;
79728;SDS011;69218;52.132;5.418;2024-03-23T15:49:03;2.60;;;0.45;;
79728;SDS011;69218;52.132;5.418;2024-03-23T15:51:29;4.97;;;0.38;;
79728;SDS011;69218;52.132;5.418;2024-03-23T15:53:58;2.22;;;0.43;;
79728;SDS011;69218;52.132;5.418;2024-03-23T15:56:24;4.68;;;0.40;;
79728;SDS011;69218;52.132;5.418;2024-03-23T15:58:50;4.22;;;0.63;;
79728;SDS011;69218;52.132;5.418;2024-03-23T16:01:15;4.53;;;0.60;;
79728;SDS011;69218;52.132;5.418;2024-03-23T16:03:41;3.70;;;0.85;;
79728;SDS011;69218;52.132;5.418;2024-03-23T16:06:07;7.22;;;0.60;;